Wetterdaten: aktuell Donnerstag, 13.06.2024 01:50
Datum Zeit Temp. A. Feuchte A. Luftdruck Regen Wind Richtung Richtung Taupunkt Windchill Windben Empfang
13.06.2024 01:50 8,3 C 90 % 1018,4 hPa 0,0 l/m 3,3 km/h (1 Bft) S-SW 202 6,8 C 8,3 C 10,9 km/h (2 Bft) 100 %
13.06.2024 01:40 8,2 C 90 % 1018,4 hPa 0,0 l/m 4,1 km/h (1 Bft) S-SW 196 6,7 C 8,2 C 8,7 km/h (2 Bft) 99 %
13.06.2024 01:30 8,3 C 90 % 1018,5 hPa 0,0 l/m 2,1 km/h (1 Bft) SW 216 6,8 C 8,3 C 6,5 km/h (2 Bft) 100 %
13.06.2024 01:20 8,3 C 89 % 1018,5 hPa 0,0 l/m 1,4 km/h (1 Bft) SW 222 6,6 C 8,3 C 6,5 km/h (2 Bft) 100 %
13.06.2024 01:10 8,3 C 89 % 1018,4 hPa 0,0 l/m 2,7 km/h (1 Bft) SW 222 6,6 C 8,3 C 8,7 km/h (2 Bft) 98 %
13.06.2024 01:00 8,3 C 89 % 1018,5 hPa 0,0 l/m 2,6 km/h (1 Bft) S-SW 210 6,6 C 8,3 C 6,5 km/h (2 Bft) 100 %
13.06.2024 00:50 8,3 C 89 % 1018,5 hPa 0,0 l/m 1,8 km/h (1 Bft) SW 217 6,6 C 8,3 C 6,5 km/h (2 Bft) 100 %
13.06.2024 00:40 8,3 C 88 % 1018,5 hPa 0,0 l/m 1,1 km/h (1 Bft) SW 218 6,4 C 8,3 C 6,5 km/h (2 Bft) 98 %
13.06.2024 00:30 8,3 C 88 % 1018,5 hPa 0,0 l/m 1,2 km/h (1 Bft) SW 219 6,4 C 8,3 C 4,3 km/h (1 Bft) 100 %
13.06.2024 00:20 8,4 C 87 % 1018,6 hPa 0,0 l/m 1,2 km/h (1 Bft) SW 217 6,4 C 8,4 C 4,3 km/h (1 Bft) 100 %
13.06.2024 00:10 8,4 C 87 % 1018,6 hPa 0,0 l/m 1,8 km/h (1 Bft) SW 217 6,4 C 8,4 C 6,5 km/h (2 Bft) 100 %
13.06.2024 00:00 8,5 C 86 % 1018,7 hPa 0,0 l/m 1,0 km/h (0 Bft) SW 218 6,3 C 8,5 C 4,3 km/h (1 Bft) 100 %
12.06.2024 23:50 8,7 C 86 % 1018,8 hPa 0,0 l/m 0,2 km/h (0 Bft) SW 219 6,5 C 8,7 C 2,2 km/h (1 Bft) 98 %
12.06.2024 23:40 8,8 C 85 % 1018,7 hPa 0,0 l/m 0,2 km/h (0 Bft) SW 219 6,4 C 8,8 C 2,2 km/h (1 Bft) 100 %
12.06.2024 23:30 9,0 C 85 % 1018,7 hPa 0,0 l/m 0,5 km/h (0 Bft) SW 219 6,6 C 9,0 C 4,3 km/h (1 Bft) 99 %
12.06.2024 23:20 9,2 C 84 % 1018,6 hPa 0,0 l/m 1,1 km/h (1 Bft) W-SW 251 6,6 C 9,2 C 4,3 km/h (1 Bft) 100 %
12.06.2024 23:10 9,4 C 82 % 1018,5 hPa 0,0 l/m 0,3 km/h (0 Bft) W-SW 253 6,5 C 9,4 C 2,2 km/h (1 Bft) 100 %
12.06.2024 23:00 9,5 C 82 % 1018,5 hPa 0,0 l/m 0,5 km/h (0 Bft) W-SW 253 6,6 C 9,5 C 4,3 km/h (1 Bft) 100 %
12.06.2024 22:50 9,8 C 81 % 1018,6 hPa 0,0 l/m 0,7 km/h (0 Bft) W-SW 253 6,7 C 9,8 C 4,3 km/h (1 Bft) 98 %
12.06.2024 22:40 9,9 C 80 % 1018,5 hPa 0,0 l/m 0,6 km/h (0 Bft) W-SW 245 6,6 C 9,9 C 4,3 km/h (1 Bft) 100 %
12.06.2024 22:30 10,1 C 80 % 1018,4 hPa 0,0 l/m 0,9 km/h (0 Bft) W-SW 245 6,8 C 10,1 C 8,7 km/h (2 Bft) 98 %
12.06.2024 22:20 10,2 C 79 % 1018,3 hPa 0,0 l/m 1,1 km/h (1 Bft) W 267 6,7 C 10,2 C 8,7 km/h (2 Bft) 99 %
12.06.2024 22:10 10,3 C 79 % 1018,3 hPa 0,0 l/m 1,8 km/h (1 Bft) W-SW 248 6,8 C 10,3 C 6,5 km/h (2 Bft) 100 %
12.06.2024 22:00 10,4 C 78 % 1018,3 hPa 0,0 l/m 0,7 km/h (0 Bft) W-SW 241 6,7 C 10,4 C 4,3 km/h (1 Bft) 99 %
12.06.2024 21:50 10,5 C 78 % 1018,3 hPa 0,0 l/m 1,7 km/h (1 Bft) W-SW 244 6,8 C 10,5 C 10,9 km/h (2 Bft) 100 %
12.06.2024 21:40 10,7 C 77 % 1018,1 hPa 0,0 l/m 2,9 km/h (1 Bft) NW 316 6,8 C 10,7 C 15,2 km/h (3 Bft) 99 %
12.06.2024 21:30 10,9 C 76 % 1018,2 hPa 0,0 l/m 2,5 km/h (1 Bft) W 277 6,8 C 10,9 C 13,0 km/h (3 Bft) 98 %
12.06.2024 21:20 11,0 C 75 % 1018,0 hPa 0,0 l/m 3,4 km/h (1 Bft) N-NW 335 6,7 C 11,0 C 17,4 km/h (3 Bft) 99 %
12.06.2024 21:10 11,2 C 74 % 1017,9 hPa 0,0 l/m 4,3 km/h (1 Bft) N-NW 331 6,7 C 11,2 C 17,4 km/h (3 Bft) 100 %
12.06.2024 21:00 11,4 C 72 % 1018,0 hPa 0,0 l/m 7,9 km/h (2 Bft) W 267 6,5 C 11,4 C 23,9 km/h (4 Bft) 100 %
12.06.2024 20:50 11,7 C 72 % 1018,0 hPa 0,0 l/m 5,5 km/h (1 Bft) NW 306 6,8 C 11,7 C 19,6 km/h (3 Bft) 100 %
12.06.2024 20:40 12,0 C 72 % 1017,9 hPa 0,0 l/m 11,9 km/h (2 Bft) N-NW 328 7,1 C 12,0 C 28,2 km/h (4 Bft) 99 %
12.06.2024 20:30 12,5 C 72 % 1017,9 hPa 0,0 l/m 5,6 km/h (1 Bft) NW 311 7,6 C 12,5 C 19,6 km/h (3 Bft) 99 %
12.06.2024 20:20 12,5 C 70 % 1017,8 hPa 0,0 l/m 6,3 km/h (2 Bft) NW 304 7,2 C 12,5 C 26,1 km/h (4 Bft) 99 %
12.06.2024 20:10 12,7 C 72 % 1017,7 hPa 0,0 l/m 4,3 km/h (1 Bft) W 274 7,8 C 12,7 C 15,2 km/h (3 Bft) 99 %
12.06.2024 20:00 12,8 C 72 % 1017,7 hPa 0,0 l/m 4,3 km/h (1 Bft) W 271 7,9 C 12,8 C 17,4 km/h (3 Bft) 99 %
12.06.2024 19:50 12,9 C 71 % 1017,7 hPa 0,0 l/m 5,9 km/h (2 Bft) W-NW 302 7,8 C 12,9 C 17,4 km/h (3 Bft) 98 %
12.06.2024 19:40 13,1 C 71 % 1017,7 hPa 0,0 l/m 5,0 km/h (1 Bft) N-NW 330 8,0 C 13,1 C 21,7 km/h (4 Bft) 100 %
12.06.2024 19:30 13,1 C 70 % 1017,8 hPa 0,0 l/m 6,2 km/h (2 Bft) W 269 7,8 C 13,1 C 17,4 km/h (3 Bft) 100 %
12.06.2024 19:20 13,0 C 69 % 1017,8 hPa 0,0 l/m 5,4 km/h (1 Bft) W-NW 291 7,4 C 13,0 C 17,4 km/h (3 Bft) 100 %
12.06.2024 19:10 13,2 C 67 % 1017,7 hPa 0,0 l/m 5,9 km/h (2 Bft) W-NW 302 7,2 C 13,2 C 21,7 km/h (4 Bft) 99 %
12.06.2024 19:00 13,5 C 66 % 1017,7 hPa 0,0 l/m 6,5 km/h (2 Bft) NW 304 7,3 C 13,5 C 21,7 km/h (4 Bft) 100 %
12.06.2024 18:50 13,6 C 66 % 1017,7 hPa 0,0 l/m 9,1 km/h (2 Bft) W 270 7,4 C 13,6 C 28,2 km/h (4 Bft) 100 %
12.06.2024 18:40 13,8 C 66 % 1017,6 hPa 0,0 l/m 9,6 km/h (2 Bft) N-NO 13 7,6 C 13,8 C 26,1 km/h (4 Bft) 100 %
12.06.2024 18:30 14,0 C 64 % 1017,5 hPa 0,0 l/m 8,1 km/h (2 Bft) NW 311 7,3 C 14,0 C 23,9 km/h (4 Bft) 99 %
12.06.2024 18:20 14,0 C 66 % 1017,5 hPa 0,0 l/m 8,2 km/h (2 Bft) W-NW 288 7,7 C 14,0 C 21,7 km/h (4 Bft) 99 %
12.06.2024 18:10 14,3 C 65 % 1017,4 hPa 0,0 l/m 4,9 km/h (1 Bft) S-SW 211 7,8 C 14,3 C 23,9 km/h (4 Bft) 100 %
12.06.2024 18:00 14,5 C 64 % 1017,2 hPa 0,0 l/m 5,9 km/h (2 Bft) SW 219 7,8 C 14,5 C 17,4 km/h (3 Bft) 100 %
12.06.2024 17:50 14,5 C 63 % 1017,3 hPa 0,0 l/m 6,6 km/h (2 Bft) SW 228 7,5 C 14,5 C 26,1 km/h (4 Bft) 99 %
12.06.2024 17:40 14,5 C 61 % 1017,3 hPa 0,0 l/m 9,5 km/h (2 Bft) SW 236 7,1 C 14,5 C 30,4 km/h (5 Bft) 99 %
12.06.2024 17:30 14,4 C 65 % 1017,3 hPa 0,0 l/m 5,2 km/h (1 Bft) N-NW 330 7,9 C 14,4 C 19,6 km/h (3 Bft) 100 %
12.06.2024 17:20 14,4 C 65 % 1017,4 hPa 0,0 l/m 6,5 km/h (2 Bft) W-NW 288 7,9 C 14,4 C 21,7 km/h (4 Bft) 99 %
12.06.2024 17:10 14,7 C 63 % 1017,3 hPa 0,0 l/m 9,2 km/h (2 Bft) NW 315 7,7 C 14,7 C 26,1 km/h (4 Bft) 100 %
12.06.2024 17:00 15,1 C 63 % 1017,3 hPa 0,0 l/m 8,6 km/h (2 Bft) W-NW 296 8,1 C 15,1 C 19,6 km/h (3 Bft) 100 %
12.06.2024 16:50 15,0 C 64 % 1017,3 hPa 0,0 l/m 8,8 km/h (2 Bft) W-NW 301 8,2 C 15,0 C 28,2 km/h (4 Bft) 100 %
12.06.2024 16:40 15,0 C 62 % 1017,4 hPa 0,0 l/m 8,7 km/h (2 Bft) NW 321 7,8 C 15,0 C 23,9 km/h (4 Bft) 99 %
12.06.2024 16:30 15,2 C 63 % 1017,4 hPa 0,0 l/m 7,2 km/h (2 Bft) NW 307 8,2 C 15,2 C 26,1 km/h (4 Bft) 100 %
12.06.2024 16:20 14,8 C 65 % 1017,3 hPa 0,0 l/m 8,3 km/h (2 Bft) S-SO 166 8,3 C 14,8 C 21,7 km/h (4 Bft) 100 %
12.06.2024 16:10 14,8 C 69 % 1017,3 hPa 0,0 l/m 5,5 km/h (1 Bft) N-NO 31 9,2 C 14,8 C 17,4 km/h (3 Bft) 100 %
12.06.2024 16:00 14,0 C 75 % 1017,4 hPa 0,0 l/m 4,3 km/h (1 Bft) W-NW 302 9,6 C 14,0 C 17,4 km/h (3 Bft) 99 %
12.06.2024 15:50 13,3 C 79 % 1017,5 hPa 0,0 l/m 5,2 km/h (1 Bft) SW 221 9,7 C 13,3 C 19,6 km/h (3 Bft) 99 %
12.06.2024 15:40 13,2 C 74 % 1017,6 hPa 0,0 l/m 7,2 km/h (2 Bft) W-NW 299 8,7 C 13,2 C 26,1 km/h (4 Bft) 99 %
12.06.2024 15:30 13,9 C 69 % 1017,7 hPa 0,0 l/m 10,4 km/h (2 Bft) W-SW 254 8,3 C 13,9 C 30,4 km/h (5 Bft) 100 %
12.06.2024 15:20 14,5 C 66 % 1017,4 hPa 0,0 l/m 6,8 km/h (2 Bft) W-SW 255 8,2 C 14,5 C 26,1 km/h (4 Bft) 100 %
12.06.2024 15:10 14,8 C 67 % 1017,4 hPa 0,0 l/m 8,9 km/h (2 Bft) SW 236 8,7 C 14,8 C 28,2 km/h (4 Bft) 98 %
12.06.2024 15:00 14,3 C 71 % 1017,4 hPa 0,0 l/m 10,5 km/h (2 Bft) N-NW 327 9,1 C 14,3 C 19,6 km/h (3 Bft) 96 %
12.06.2024 14:50 13,8 C 73 % 1017,5 hPa 0,0 l/m 10,4 km/h (2 Bft) S 182 9,0 C 13,8 C 30,4 km/h (5 Bft) 99 %
12.06.2024 14:40 12,8 C 79 % 1017,6 hPa 0,0 l/m 7,4 km/h (2 Bft) W-SW 250 9,2 C 12,8 C 19,6 km/h (3 Bft) 99 %
12.06.2024 14:30 12,4 C 78 % 1017,8 hPa 0,0 l/m 7,6 km/h (2 Bft) W-NW 302 8,7 C 12,4 C 28,2 km/h (4 Bft) 99 %
12.06.2024 14:20 12,5 C 78 % 1017,7 hPa 0,0 l/m 7,9 km/h (2 Bft) W-SW 239 8,8 C 12,5 C 23,9 km/h (4 Bft) 100 %
12.06.2024 14:10 12,1 C 88 % 1017,6 hPa 0,0 l/m 5,5 km/h (1 Bft) NW 313 10,2 C 12,1 C 26,1 km/h (4 Bft) 98 %
12.06.2024 14:00 11,5 C 87 % 1017,7 hPa 0,0 l/m 6,4 km/h (2 Bft) S-SW 195 9,4 C 11,5 C 21,7 km/h (4 Bft) 100 %
12.06.2024 13:50 11,3 C 87 % 1017,7 hPa 0,0 l/m 8,2 km/h (2 Bft) SW 232 9,2 C 11,3 C 21,7 km/h (4 Bft) 99 %
12.06.2024 13:40 11,2 C 86 % 1017,7 hPa 0,0 l/m 9,4 km/h (2 Bft) SW 217 8,9 C 11,2 C 21,7 km/h (4 Bft) 100 %
12.06.2024 13:30 11,7 C 81 % 1017,7 hPa 0,2 l/m 12,6 km/h (3 Bft) SW 236 8,5 C 11,7 C 32,6 km/h (5 Bft) 100 %
12.06.2024 13:20 12,7 C 81 % 1017,6 hPa 0,0 l/m 3,6 km/h (1 Bft) W-NW 298 9,5 C 12,7 C 23,9 km/h (4 Bft) 99 %
12.06.2024 13:10 12,5 C 84 % 1017,5 hPa 0,0 l/m 4,4 km/h (1 Bft) W 259 9,9 C 12,5 C 15,2 km/h (3 Bft) 100 %
12.06.2024 13:00 12,3 C 83 % 1017,5 hPa 0,0 l/m 7,7 km/h (2 Bft) SW 214 9,5 C 12,3 C 19,6 km/h (3 Bft) 99 %
12.06.2024 12:50 11,9 C 89 % 1017,6 hPa 0,0 l/m 5,7 km/h (1 Bft) W 267 10,1 C 11,9 C 13,0 km/h (3 Bft) 100 %
12.06.2024 12:40 10,8 C 89 % 1017,8 hPa 0,0 l/m 3,6 km/h (1 Bft) SW 229 9,1 C 10,8 C 13,0 km/h (3 Bft) 98 %
12.06.2024 12:30 10,4 C 88 % 1017,7 hPa 0,0 l/m 2,7 km/h (1 Bft) NW 313 8,5 C 10,4 C 10,9 km/h (2 Bft) 100 %
12.06.2024 12:20 10,4 C 86 % 1017,8 hPa 0,4 l/m 7,2 km/h (2 Bft) S-SW 205 8,2 C 10,4 C 19,6 km/h (3 Bft) 100 %
12.06.2024 12:10 11,2 C 83 % 1017,8 hPa 0,2 l/m 9,9 km/h (2 Bft) SW 229 8,4 C 11,2 C 28,2 km/h (4 Bft) 100 %
12.06.2024 12:00 12,6 C 74 % 1017,7 hPa 0,0 l/m 14,0 km/h (3 Bft) W 261 8,1 C 12,6 C 30,4 km/h (5 Bft) 99 %
12.06.2024 11:50 13,4 C 76 % 1017,4 hPa 0,0 l/m 10,6 km/h (2 Bft) W-SW 240 9,3 C 13,4 C 23,9 km/h (4 Bft) 99 %
12.06.2024 11:40 12,8 C 77 % 1017,4 hPa 0,0 l/m 9,0 km/h (2 Bft) S-SW 213 8,9 C 12,8 C 21,7 km/h (4 Bft) 99 %
12.06.2024 11:30 12,4 C 78 % 1017,5 hPa 0,0 l/m 10,8 km/h (2 Bft) S-SW 205 8,7 C 12,4 C 23,9 km/h (4 Bft) 100 %
12.06.2024 11:20 12,0 C 80 % 1017,5 hPa 0,0 l/m 11,9 km/h (2 Bft) S-SW 192 8,7 C 12,0 C 23,9 km/h (4 Bft) 100 %
12.06.2024 11:10 12,0 C 84 % 1017,5 hPa 0,0 l/m 7,9 km/h (2 Bft) SW 232 9,4 C 12,0 C 17,4 km/h (3 Bft) 100 %
12.06.2024 11:00 11,4 C 84 % 1017,5 hPa 0,0 l/m 9,4 km/h (2 Bft) W-NW 288 8,8 C 11,4 C 21,7 km/h (4 Bft) 99 %
12.06.2024 10:50 11,4 C 83 % 1017,5 hPa 0,0 l/m 10,5 km/h (2 Bft) S-SW 202 8,6 C 11,4 C 21,7 km/h (4 Bft) 99 %
12.06.2024 10:40 11,8 C 84 % 1017,5 hPa 0,0 l/m 11,4 km/h (2 Bft) SW 236 9,2 C 11,8 C 28,2 km/h (4 Bft) 100 %
12.06.2024 10:30 11,5 C 87 % 1017,4 hPa 0,0 l/m 8,8 km/h (2 Bft) SW 236 9,4 C 11,5 C 19,6 km/h (3 Bft) 100 %
12.06.2024 10:20 11,7 C 84 % 1017,5 hPa 0,0 l/m 10,8 km/h (2 Bft) S-SW 209 9,1 C 11,7 C 23,9 km/h (4 Bft) 100 %
12.06.2024 10:10 12,5 C 77 % 1017,6 hPa 0,0 l/m 10,8 km/h (2 Bft) SW 232 8,6 C 12,5 C 28,2 km/h (4 Bft) 100 %
12.06.2024 10:00 13,0 C 76 % 1017,3 hPa 0,0 l/m 6,0 km/h (2 Bft) W-SW 240 8,9 C 13,0 C 17,4 km/h (3 Bft) 99 %
12.06.2024 09:50 12,8 C 77 % 1017,3 hPa 0,0 l/m 8,5 km/h (2 Bft) W 267 8,9 C 12,8 C 21,7 km/h (4 Bft) 99 %
12.06.2024 09:40 12,4 C 78 % 1017,5 hPa 0,0 l/m 9,1 km/h (2 Bft) S-SW 203 8,7 C 12,4 C 21,7 km/h (4 Bft) 99 %
12.06.2024 09:30 11,9 C 79 % 1017,5 hPa 0,0 l/m 12,0 km/h (2 Bft) S-SW 200 8,4 C 11,9 C 28,2 km/h (4 Bft) 99 %
12.06.2024 09:20 11,9 C 82 % 1017,6 hPa 0,0 l/m 8,8 km/h (2 Bft) SW 216 8,9 C 11,9 C 28,2 km/h (4 Bft) 99 %
12.06.2024 09:10 11,7 C 82 % 1017,5 hPa 0,0 l/m 10,1 km/h (2 Bft) W-SW 240 8,7 C 11,7 C 23,9 km/h (4 Bft) 100 %
12.06.2024 09:00 11,5 C 81 % 1017,6 hPa 0,0 l/m 9,3 km/h (2 Bft) S 182 8,4 C 11,5 C 26,1 km/h (4 Bft) 99 %
12.06.2024 08:50 11,5 C 82 % 1017,6 hPa 0,0 l/m 8,3 km/h (2 Bft) S-SW 209 8,5 C 11,5 C 17,4 km/h (3 Bft) 98 %
12.06.2024 08:40 11,5 C 83 % 1017,5 hPa 0,0 l/m 10,6 km/h (2 Bft) S-SW 207 8,7 C 11,5 C 23,9 km/h (4 Bft) 100 %
12.06.2024 08:30 11,4 C 85 % 1017,5 hPa 0,0 l/m 7,3 km/h (2 Bft) W-SW 244 9,0 C 11,4 C 19,6 km/h (3 Bft) 99 %
12.06.2024 08:20 11,2 C 85 % 1017,4 hPa 0,0 l/m 7,2 km/h (2 Bft) SW 221 8,8 C 11,2 C 19,6 km/h (3 Bft) 99 %
12.06.2024 08:10 11,2 C 87 % 1017,3 hPa 0,0 l/m 5,2 km/h (1 Bft) W-SW 237 9,1 C 11,2 C 17,4 km/h (3 Bft) 100 %
12.06.2024 08:00 10,9 C 88 % 1017,3 hPa 0,0 l/m 6,5 km/h (2 Bft) W-NW 282 9,0 C 10,9 C 19,6 km/h (3 Bft) 100 %
12.06.2024 07:50 10,8 C 89 % 1017,3 hPa 0,0 l/m 7,9 km/h (2 Bft) W-SW 244 9,1 C 10,8 C 21,7 km/h (4 Bft) 98 %
12.06.2024 07:40 10,5 C 90 % 1017,3 hPa 0,0 l/m 5,7 km/h (1 Bft) S-SW 206 8,9 C 10,5 C 13,0 km/h (3 Bft) 100 %
12.06.2024 07:30 10,3 C 91 % 1017,3 hPa 0,0 l/m 7,4 km/h (2 Bft) W-SW 242 8,9 C 10,3 C 17,4 km/h (3 Bft) 98 %
12.06.2024 07:20 10,1 C 92 % 1017,2 hPa 0,0 l/m 6,4 km/h (2 Bft) S 187 8,9 C 10,1 C 17,4 km/h (3 Bft) 100 %
12.06.2024 07:10 10,0 C 92 % 1017,2 hPa 0,0 l/m 7,5 km/h (2 Bft) NW 305 8,8 C 9,1 C 17,4 km/h (3 Bft) 99 %
12.06.2024 07:00 9,8 C 92 % 1017,1 hPa 0,0 l/m 7,2 km/h (2 Bft) W-SW 238 8,6 C 8,9 C 15,2 km/h (3 Bft) 100 %
12.06.2024 06:50 9,7 C 93 % 1017,1 hPa 0,0 l/m 7,0 km/h (2 Bft) W-SW 248 8,6 C 8,9 C 17,4 km/h (3 Bft) 100 %
12.06.2024 06:40 9,5 C 93 % 1017,0 hPa 0,0 l/m 7,4 km/h (2 Bft) SW 225 8,4 C 8,6 C 17,4 km/h (3 Bft) 99 %
12.06.2024 06:30 9,3 C 93 % 1017,1 hPa 0,0 l/m 4,3 km/h (1 Bft) S-SW 209 8,2 C 9,3 C 13,0 km/h (3 Bft) 100 %
12.06.2024 06:20 9,2 C 93 % 1017,0 hPa 0,0 l/m 4,8 km/h (1 Bft) S-SW 213 8,1 C 8,9 C 10,9 km/h (2 Bft) 99 %
12.06.2024 06:10 9,0 C 93 % 1017,0 hPa 0,0 l/m 2,8 km/h (1 Bft) SW 224 7,9 C 9,0 C 8,7 km/h (2 Bft) 99 %
12.06.2024 06:00 9,0 C 93 % 1016,9 hPa 0,0 l/m 4,7 km/h (1 Bft) S-SW 213 7,9 C 8,7 C 13,0 km/h (3 Bft) 99 %
12.06.2024 05:50 8,9 C 93 % 1016,9 hPa 0,0 l/m 3,5 km/h (1 Bft) SW 226 7,8 C 8,9 C 8,7 km/h (2 Bft) 99 %
12.06.2024 05:40 8,8 C 93 % 1016,9 hPa 0,0 l/m 2,7 km/h (1 Bft) S-SW 212 7,7 C 8,8 C 8,7 km/h (2 Bft) 99 %
12.06.2024 05:30 8,8 C 93 % 1016,7 hPa 0,0 l/m 3,9 km/h (1 Bft) S-SW 198 7,7 C 8,8 C 8,7 km/h (2 Bft) 100 %
12.06.2024 05:20 8,8 C 93 % 1016,7 hPa 0,0 l/m 3,3 km/h (1 Bft) S-SW 211 7,7 C 8,8 C 10,9 km/h (2 Bft) 99 %
12.06.2024 05:10 8,9 C 92 % 1016,6 hPa 0,0 l/m 2,0 km/h (1 Bft) SW 225 7,7 C 8,9 C 8,7 km/h (2 Bft) 100 %
12.06.2024 05:00 8,9 C 92 % 1016,6 hPa 0,0 l/m 3,0 km/h (1 Bft) S-SW 202 7,7 C 8,9 C 6,5 km/h (2 Bft) 99 %
12.06.2024 04:50 9,0 C 92 % 1016,6 hPa 0,0 l/m 2,5 km/h (1 Bft) S-SW 213 7,8 C 9,0 C 6,5 km/h (2 Bft) 99 %
12.06.2024 04:40 9,0 C 92 % 1016,6 hPa 0,0 l/m 1,5 km/h (1 Bft) S-SW 213 7,8 C 9,0 C 8,7 km/h (2 Bft) 100 %
12.06.2024 04:30 9,2 C 92 % 1016,6 hPa 0,0 l/m 2,2 km/h (1 Bft) SW 216 8,0 C 9,2 C 6,5 km/h (2 Bft) 99 %
12.06.2024 04:20 9,2 C 91 % 1016,7 hPa 0,0 l/m 1,2 km/h (1 Bft) S-SW 206 7,8 C 9,2 C 4,3 km/h (1 Bft) 99 %
12.06.2024 04:10 9,3 C 91 % 1016,7 hPa 0,0 l/m 2,1 km/h (1 Bft) S-SW 206 7,9 C 9,3 C 6,5 km/h (2 Bft) 100 %
12.06.2024 04:00 9,5 C 91 % 1016,6 hPa 0,0 l/m 2,4 km/h (1 Bft) SW 216 8,1 C 9,5 C 8,7 km/h (2 Bft) 98 %
12.06.2024 03:50 9,6 C 91 % 1016,5 hPa 0,0 l/m 2,1 km/h (1 Bft) SW 225 8,2 C 9,6 C 6,5 km/h (2 Bft) 100 %
12.06.2024 03:40 9,8 C 91 % 1016,5 hPa 0,0 l/m 2,7 km/h (1 Bft) SW 221 8,4 C 9,8 C 8,7 km/h (2 Bft) 99 %
12.06.2024 03:30 9,8 C 91 % 1016,5 hPa 0,0 l/m 1,9 km/h (1 Bft) SW 217 8,4 C 9,8 C 6,5 km/h (2 Bft) 100 %
12.06.2024 03:20 9,8 C 91 % 1016,4 hPa 0,0 l/m 1,4 km/h (1 Bft) SW 222 8,4 C 9,8 C 8,7 km/h (2 Bft) 100 %
12.06.2024 03:10 9,9 C 90 % 1016,4 hPa 0,0 l/m 0,6 km/h (0 Bft) S-SW 203 8,3 C 9,9 C 6,5 km/h (2 Bft) 99 %
12.06.2024 03:00 9,9 C 90 % 1016,5 hPa 0,0 l/m 1,1 km/h (1 Bft) W-SW 241 8,3 C 9,9 C 13,0 km/h (3 Bft) 99 %
12.06.2024 02:50 10,0 C 90 % 1016,4 hPa 0,0 l/m 1,4 km/h (1 Bft) S-SW 206 8,4 C 10,0 C 6,5 km/h (2 Bft) 98 %
12.06.2024 02:40 10,1 C 90 % 1016,4 hPa 0,0 l/m 2,4 km/h (1 Bft) SW 225 8,5 C 10,1 C 8,7 km/h (2 Bft) 100 %
12.06.2024 02:30 10,1 C 90 % 1016,5 hPa 0,0 l/m 2,8 km/h (1 Bft) SW 232 8,5 C 10,1 C 13,0 km/h (3 Bft) 100 %
12.06.2024 02:20 10,1 C 90 % 1016,4 hPa 0,0 l/m 3,3 km/h (1 Bft) SW 232 8,5 C 10,1 C 10,9 km/h (2 Bft) 99 %
12.06.2024 02:10 10,1 C 90 % 1016,5 hPa 0,0 l/m 3,4 km/h (1 Bft) W-NW 284 8,5 C 10,1 C 10,9 km/h (2 Bft) 99 %
12.06.2024 02:00 10,2 C 90 % 1016,5 hPa 0,0 l/m 2,8 km/h (1 Bft) N-NW 338 8,6 C 10,2 C 19,6 km/h (3 Bft) 100 %
_ Min-Zeit 01:40 17:40 02:20 - 23:40 - - 00:00 01:40 23:10 15:00
Minimum _ 8,2 C 61 % 1016,4 hPa - 0,2 km/h (0 Bft) - - 6,3 C 8,2 C 2,2 km/h (1 Bft) 96 %
_ Max-Zeit 16:40 05:20 23:50 12:20 12:00 - - 14:10 16:30 13:30 02:40
Maximum _ 15,3 C 93 % 1018,8 hPa 0,4 l/m 14,0 km/h
W (3 Bft)
- - 10,2 C 15,2 C 32,6 km/h
W-SW (5 Bft)
100 %
Durchschnitt _ 11,2 C 82 % 1017,5 hPa #0,8 l/m 5,3 km/h (1 Bft) SW - 8,1 C 11,2 C 16,8 km/h (3 Bft) 99 %